createdAt,value
2019-02-15T00:02:14.487Z,2.09
2019-02-15T00:04:43.078Z,1.99
2019-02-15T00:07:12.189Z,1.89
2019-02-15T00:09:40.777Z,1.93
2019-02-15T00:12:09.492Z,1.86
2019-02-15T00:14:49.004Z,1.77
2019-02-15T00:17:25.329Z,1.82
2019-02-15T00:19:55.492Z,1.92
2019-02-15T00:22:24.080Z,1.82
2019-02-15T00:24:52.708Z,1.75
2019-02-15T00:27:21.302Z,1.75
2019-02-15T00:29:49.883Z,1.54
2019-02-15T00:32:18.474Z,1.69
2019-02-15T00:34:47.062Z,1.78
2019-02-15T00:37:15.655Z,1.67
2019-02-15T00:39:44.244Z,1.49
2019-02-15T00:42:12.898Z,1.46
2019-02-15T00:44:41.603Z,1.49
2019-02-15T00:47:15.489Z,1.44
2019-02-15T00:49:45.575Z,1.49
2019-02-15T00:52:15.738Z,1.48
2019-02-15T00:54:49.032Z,1.46
2019-02-15T00:57:19.190Z,1.48
2019-02-15T00:59:55.409Z,1.32
2019-02-15T01:02:28.316Z,1.31
2019-02-15T01:05:16.948Z,1.45
2019-02-15T01:07:50.105Z,1.54
2019-02-15T01:10:38.749Z,1.49
2019-02-15T01:13:10.090Z,1.16
2019-02-15T01:15:38.652Z,1.31
2019-02-15T01:18:07.831Z,1.20
2019-02-15T01:20:36.530Z,1.42
2019-02-15T01:23:05.219Z,1.42
2019-02-15T01:25:35.372Z,1.48
2019-02-15T01:28:08.339Z,1.58
2019-02-15T01:30:44.592Z,1.48
2019-02-15T01:33:29.684Z,1.54
2019-02-15T01:36:11.769Z,1.65
2019-02-15T01:38:50.738Z,1.56
2019-02-15T01:41:20.905Z,1.53
2019-02-15T01:43:53.852Z,1.62
2019-02-15T01:46:24.097Z,1.56
2019-02-15T01:48:52.762Z,1.53
2019-02-15T01:51:21.344Z,1.58
2019-02-15T01:53:49.971Z,1.51
2019-02-15T01:56:18.556Z,1.34
2019-02-15T01:58:47.157Z,1.36
2019-02-15T02:01:17.332Z,1.28
2019-02-15T02:03:45.912Z,1.36
2019-02-15T02:06:14.513Z,1.48
2019-02-15T02:08:43.100Z,1.55
2019-02-15T02:11:11.923Z,1.39
2019-02-15T02:13:49.043Z,1.34
2019-02-15T02:16:13.901Z,1.30
2019-02-15T02:18:42.481Z,1.28
2019-02-15T02:21:11.371Z,1.25
2019-02-15T02:23:40.003Z,1.29
2019-02-15T02:26:09.340Z,1.28
2019-02-15T02:28:38.034Z,1.29
2019-02-15T02:31:06.707Z,1.34
2019-02-15T02:33:35.287Z,1.33
2019-02-15T02:36:03.875Z,1.36
2019-02-15T02:38:32.458Z,1.38
2019-02-15T02:41:01.046Z,1.31
2019-02-15T02:43:29.734Z,1.43
2019-02-15T02:45:58.326Z,1.51
2019-02-15T02:48:26.924Z,1.40
2019-02-15T02:50:55.595Z,1.38
2019-02-15T02:53:24.178Z,1.25
2019-02-15T02:55:52.758Z,1.48
2019-02-15T02:58:21.441Z,1.35
2019-02-15T03:00:50.024Z,1.33
2019-02-15T03:03:18.608Z,1.28
2019-02-15T03:05:47.190Z,1.21
2019-02-15T03:08:15.775Z,1.23
2019-02-15T03:10:44.363Z,1.10
2019-02-15T03:13:12.949Z,1.19
2019-02-15T03:15:41.534Z,1.26
2019-02-15T03:18:10.714Z,1.30
2019-02-15T03:20:39.297Z,1.30
2019-02-15T03:23:08.636Z,1.09
2019-02-15T03:25:37.256Z,0.94
2019-02-15T03:28:05.854Z,0.96
2019-02-15T03:30:34.434Z,1.16
2019-02-15T03:33:03.028Z,1.33
2019-02-15T03:35:31.633Z,1.30
2019-02-15T03:38:01.785Z,1.21
2019-02-15T03:40:31.944Z,1.36
2019-02-15T03:43:00.524Z,1.04
2019-02-15T03:45:29.154Z,0.84
2019-02-15T03:47:57.735Z,0.88
2019-02-15T03:50:26.322Z,0.95
2019-02-15T03:52:54.906Z,0.81
2019-02-15T03:55:23.551Z,0.76
2019-02-15T03:57:52.172Z,0.70
2019-02-15T04:00:20.761Z,0.78
2019-02-15T04:02:49.344Z,0.85
2019-02-15T04:05:17.927Z,0.76
2019-02-15T04:07:46.512Z,0.88
2019-02-15T04:10:15.107Z,0.89
2019-02-15T04:12:43.684Z,0.74
2019-02-15T04:15:12.276Z,0.84
2019-02-15T04:17:40.860Z,0.85
2019-02-15T04:20:10.042Z,0.84
2019-02-15T04:22:38.667Z,0.73
2019-02-15T04:25:07.311Z,0.70
2019-02-15T04:27:35.927Z,0.67
2019-02-15T04:30:05.615Z,0.87
2019-02-15T04:32:34.201Z,0.81
2019-02-15T04:35:02.834Z,0.81
2019-02-15T04:37:31.423Z,0.89
2019-02-15T04:39:59.997Z,0.74
2019-02-15T04:42:28.597Z,0.66
2019-02-15T04:44:57.196Z,0.68
2019-02-15T04:47:25.779Z,0.79
2019-02-15T04:49:54.365Z,0.73
2019-02-15T04:52:22.950Z,0.73
2019-02-15T04:54:51.532Z,0.65
2019-02-15T04:57:20.123Z,0.53
2019-02-15T04:59:48.747Z,0.49
2019-02-15T05:02:17.376Z,0.70
2019-02-15T05:04:46.099Z,0.56
2019-02-15T05:07:14.711Z,0.61
2019-02-15T05:09:56.922Z,0.57
2019-02-15T05:12:20.892Z,0.63
2019-02-15T05:14:53.134Z,0.58
2019-02-15T05:17:19.841Z,0.35
2019-02-15T05:19:48.438Z,0.43
2019-02-15T05:22:17.027Z,0.47
2019-02-15T05:24:45.607Z,0.43
2019-02-15T05:27:14.207Z,0.38
2019-02-15T05:29:42.777Z,0.27
2019-02-15T05:32:11.630Z,0.41
2019-02-15T05:34:40.239Z,0.47
2019-02-15T05:37:10.870Z,0.49
2019-02-15T05:39:39.477Z,0.53
2019-02-15T05:42:09.084Z,0.63
2019-02-15T05:44:37.773Z,0.41
2019-02-15T05:47:06.353Z,0.29
2019-02-15T05:49:34.933Z,0.38
2019-02-15T05:52:03.563Z,0.43
2019-02-15T05:54:32.190Z,0.56
2019-02-15T05:57:00.781Z,0.76
2019-02-15T05:59:29.365Z,0.70
2019-02-15T06:01:57.952Z,0.72
2019-02-15T06:04:26.600Z,0.93
2019-02-15T06:06:55.237Z,0.43
2019-02-15T06:09:23.827Z,0.45
2019-02-15T06:11:52.418Z,0.54
2019-02-15T06:14:20.991Z,0.58
2019-02-15T06:16:49.660Z,0.39
2019-02-15T06:19:18.255Z,0.26
2019-02-15T06:21:46.851Z,0.32
2019-02-15T06:24:15.959Z,0.45
2019-02-15T06:26:44.534Z,0.45
2019-02-15T06:29:13.200Z,0.16
2019-02-15T06:31:41.785Z,0.28
2019-02-15T06:34:11.160Z,0.04
2019-02-15T06:36:41.694Z,-0.05
2019-02-15T06:39:10.497Z,-0.06
2019-02-15T06:41:39.085Z,-0.15
2019-02-15T06:44:08.107Z,-0.12
2019-02-15T06:46:36.727Z,0.11
2019-02-15T06:49:05.331Z,0.33
2019-02-15T06:51:33.900Z,0.42
2019-02-15T06:54:02.487Z,0.32
2019-02-15T06:56:31.082Z,0.37
2019-02-15T06:59:10.178Z,0.17
2019-02-15T07:01:46.627Z,0.15
2019-02-15T07:04:16.810Z,0.15
2019-02-15T07:06:45.399Z,0.19
2019-02-15T07:09:15.234Z,0.12
2019-02-15T07:11:43.908Z,0.15
2019-02-15T07:14:12.491Z,0.16
2019-02-15T07:16:41.073Z,0.35
2019-02-15T07:19:10.108Z,0.40
2019-02-15T07:21:38.691Z,0.53
2019-02-15T07:24:07.916Z,0.55
2019-02-15T07:26:36.532Z,0.58
2019-02-15T07:29:05.120Z,0.72
2019-02-15T07:31:33.697Z,0.53
2019-02-15T07:34:02.288Z,0.39
2019-02-15T07:36:30.875Z,0.25
2019-02-15T07:38:59.579Z,0.37
2019-02-15T07:41:28.170Z,0.68
2019-02-15T07:43:56.774Z,0.74
2019-02-15T07:46:25.468Z,0.74
2019-02-15T07:48:54.134Z,0.90
2019-02-15T07:51:22.720Z,0.91
2019-02-15T07:53:51.311Z,1.13
2019-02-15T07:56:19.932Z,1.16
2019-02-15T07:58:48.521Z,1.34
2019-02-15T08:01:17.119Z,1.34
2019-02-15T08:03:45.719Z,1.23
2019-02-15T08:06:14.295Z,1.38
2019-02-15T08:08:42.871Z,1.46
2019-02-15T08:11:11.613Z,1.48
2019-02-15T08:13:40.196Z,1.48
2019-02-15T08:16:09.736Z,1.51
2019-02-15T08:18:38.321Z,1.64
2019-02-15T08:21:07.195Z,1.58
2019-02-15T08:23:35.780Z,1.63
2019-02-15T08:26:04.387Z,1.57
2019-02-15T08:28:32.985Z,1.52
2019-02-15T08:31:01.568Z,1.63
2019-02-15T08:33:30.148Z,1.66
2019-02-15T08:35:58.731Z,1.74
2019-02-15T08:38:27.622Z,1.81
2019-02-15T08:40:56.393Z,1.78
2019-02-15T08:43:25.076Z,1.81
2019-02-15T08:46:00.588Z,1.79
2019-02-15T08:48:24.050Z,1.83
2019-02-15T08:50:52.638Z,1.99
2019-02-15T08:53:21.248Z,2.05
2019-02-15T08:55:49.850Z,2.17
2019-02-15T08:58:18.447Z,2.19
2019-02-15T09:00:47.037Z,2.18
2019-02-15T09:03:15.622Z,2.33
2019-02-15T09:05:44.206Z,2.40
2019-02-15T09:08:12.799Z,2.51
2019-02-15T09:10:41.382Z,2.49
2019-02-15T09:13:11.058Z,2.56
2019-02-15T09:15:39.709Z,2.65
2019-02-15T09:18:09.218Z,2.75
2019-02-15T09:20:37.801Z,2.85
2019-02-15T09:23:06.385Z,2.96
2019-02-15T09:25:35.101Z,3.06
2019-02-15T09:28:23.360Z,3.27
2019-02-15T09:30:52.545Z,3.38
2019-02-15T09:33:21.137Z,3.45
2019-02-15T09:35:49.718Z,3.57
2019-02-15T09:38:18.345Z,3.65
2019-02-15T09:40:46.963Z,3.66
2019-02-15T09:43:15.552Z,3.79
2019-02-15T09:45:44.527Z,3.84
2019-02-15T09:48:13.107Z,3.95
2019-02-15T09:50:41.692Z,4.01
2019-02-15T09:53:11.023Z,4.08
2019-02-15T09:55:39.620Z,4.14
2019-02-15T09:58:08.734Z,4.31
2019-02-15T10:00:37.316Z,4.37
2019-02-15T10:03:05.903Z,4.44
2019-02-15T10:05:34.482Z,4.57
2019-02-15T10:08:03.055Z,4.65
2019-02-15T10:10:31.645Z,4.68
2019-02-15T10:13:00.234Z,4.72
2019-02-15T10:15:28.818Z,4.81
2019-02-15T10:17:57.398Z,4.79
2019-02-15T10:20:26.039Z,4.89
2019-02-15T10:22:54.615Z,5.00
2019-02-15T10:25:23.244Z,5.07
2019-02-15T10:27:51.842Z,5.04
2019-02-15T10:30:20.424Z,5.09
2019-02-15T10:32:49.006Z,5.18
2019-02-15T10:35:17.588Z,5.28
2019-02-15T10:37:46.171Z,5.31
2019-02-15T10:40:14.753Z,5.41
2019-02-15T10:42:43.375Z,5.44
2019-02-15T10:45:14.521Z,5.62
2019-02-15T10:47:43.166Z,5.75
2019-02-15T10:50:12.129Z,5.79
2019-02-15T10:52:40.717Z,5.91
2019-02-15T10:55:10.272Z,6.03
2019-02-15T10:57:38.852Z,6.16
2019-02-15T11:00:14.766Z,6.11
2019-02-15T11:02:43.415Z,6.24
2019-02-15T11:05:13.010Z,6.36
2019-02-15T11:07:41.599Z,6.59
2019-02-15T11:10:10.407Z,6.55
2019-02-15T11:12:38.994Z,6.57
2019-02-15T11:15:10.620Z,6.75
2019-02-15T11:17:39.203Z,6.78
2019-02-15T11:20:10.960Z,6.84
2019-02-15T11:22:39.578Z,7.04
2019-02-15T11:25:10.812Z,7.00
2019-02-15T11:27:39.404Z,7.06
2019-02-15T11:30:13.282Z,7.08
2019-02-15T11:32:41.868Z,7.21
2019-02-15T11:35:14.293Z,7.34
2019-02-15T11:37:42.888Z,7.50
2019-02-15T11:40:13.797Z,7.65
2019-02-15T11:42:42.385Z,7.68
2019-02-15T11:45:14.805Z,7.72
2019-02-15T11:47:43.441Z,7.76
2019-02-15T11:50:13.970Z,7.98
2019-02-15T11:52:42.555Z,8.04
2019-02-15T11:55:11.590Z,8.04
2019-02-15T11:57:40.168Z,8.16
2019-02-15T12:00:15.315Z,8.30
2019-02-15T12:02:43.905Z,8.42
2019-02-15T12:05:12.674Z,8.53
2019-02-15T12:07:41.267Z,8.32
2019-02-15T12:10:11.284Z,8.45
2019-02-15T12:12:39.869Z,8.85
2019-02-15T12:15:10.158Z,8.92
2019-02-15T12:17:38.750Z,8.85
2019-02-15T12:20:11.804Z,9.11
2019-02-15T12:22:40.397Z,9.08
2019-02-15T12:25:10.111Z,9.31
2019-02-15T12:27:38.710Z,9.26
2019-02-15T12:30:10.297Z,9.39
2019-02-15T12:32:38.886Z,9.25
2019-02-15T12:35:08.673Z,9.23
2019-02-15T12:37:37.258Z,9.35
2019-02-15T12:40:07.947Z,9.76
2019-02-15T12:42:36.540Z,9.82
2019-02-15T12:45:10.344Z,10.01
2019-02-15T12:47:38.928Z,9.74
2019-02-15T12:50:13.426Z,10.05
2019-02-15T12:52:42.099Z,9.99
2019-02-15T12:55:10.992Z,9.97
2019-02-15T12:57:39.587Z,10.03
2019-02-15T13:00:15.806Z,10.05
2019-02-15T13:02:44.400Z,10.05
2019-02-15T13:05:13.501Z,10.27
2019-02-15T13:07:42.090Z,10.51
2019-02-15T13:10:22.852Z,10.46
2019-02-15T13:12:51.438Z,10.45
2019-02-15T13:15:20.066Z,10.62
2019-02-15T13:17:48.721Z,10.50
2019-02-15T13:20:17.297Z,10.54
2019-02-15T13:22:45.897Z,10.47
2019-02-15T13:25:14.488Z,10.69
2019-02-15T13:27:43.122Z,10.81
2019-02-15T13:30:15.829Z,10.86
2019-02-15T13:32:44.440Z,10.88
2019-02-15T13:35:18.966Z,11.05
2019-02-15T13:37:47.563Z,11.28
2019-02-15T13:40:16.175Z,11.58
2019-02-15T13:42:44.772Z,11.87
2019-02-15T13:45:13.681Z,12.72
2019-02-15T13:47:42.279Z,13.13
2019-02-15T13:50:13.184Z,13.43
2019-02-15T13:52:41.775Z,13.60
2019-02-15T13:55:11.430Z,14.25
2019-02-15T13:57:40.062Z,13.94
2019-02-15T14:00:13.467Z,14.29
2019-02-15T14:02:42.046Z,14.49
2019-02-15T14:05:11.963Z,14.72
2019-02-15T14:07:40.559Z,15.00
2019-02-15T14:10:13.547Z,14.97
2019-02-15T14:12:42.159Z,15.30
2019-02-15T14:15:12.223Z,15.16
2019-02-15T14:17:44.827Z,15.27
2019-02-15T14:20:13.612Z,15.08
2019-02-15T14:22:42.219Z,15.27
2019-02-15T14:25:12.920Z,15.49
2019-02-15T14:27:41.517Z,15.07
2019-02-15T14:30:12.351Z,15.80
2019-02-15T14:32:40.949Z,15.81
2019-02-15T14:35:10.976Z,15.80
2019-02-15T14:37:39.572Z,15.81
2019-02-15T14:40:10.341Z,15.70
2019-02-15T14:42:38.949Z,15.97
2019-02-15T14:45:09.865Z,15.76
2019-02-15T14:47:38.460Z,15.87
2019-02-15T14:50:08.759Z,15.53
2019-02-15T14:52:37.350Z,15.51
2019-02-15T14:55:07.611Z,15.96
2019-02-15T14:57:36.186Z,15.80
2019-02-15T15:00:12.251Z,15.80
2019-02-15T15:02:40.904Z,15.91
2019-02-15T15:05:12.673Z,15.99
2019-02-15T15:07:41.263Z,16.13
2019-02-15T15:10:10.920Z,16.11
2019-02-15T15:12:39.511Z,16.37
2019-02-15T15:15:13.919Z,16.41
2019-02-15T15:17:42.510Z,16.45
2019-02-15T15:20:12.821Z,16.16
2019-02-15T15:22:41.408Z,16.46
2019-02-15T15:25:12.523Z,16.80
2019-02-15T15:27:41.184Z,16.80
2019-02-15T15:30:12.977Z,16.92
2019-02-15T15:32:41.570Z,16.36
2019-02-15T15:35:11.822Z,16.59
2019-02-15T15:37:40.413Z,16.66
2019-02-15T15:40:14.054Z,16.97
2019-02-15T15:42:42.666Z,16.86
2019-02-15T15:45:14.842Z,16.62
2019-02-15T15:47:43.439Z,16.52
2019-02-15T15:50:13.185Z,16.52
2019-02-15T15:52:41.775Z,16.51
2019-02-15T15:55:13.082Z,16.41
2019-02-15T15:57:41.670Z,16.45
2019-02-15T16:00:15.556Z,16.15
2019-02-15T16:02:44.146Z,16.02
2019-02-15T16:05:13.393Z,16.22
2019-02-15T16:07:43.651Z,16.09
2019-02-15T16:10:14.128Z,16.31
2019-02-15T16:12:42.718Z,15.93
2019-02-15T16:15:12.916Z,16.25
2019-02-15T16:17:42.060Z,16.13
2019-02-15T16:20:12.187Z,16.16
2019-02-15T16:22:40.760Z,15.87
2019-02-15T16:25:10.911Z,15.87
2019-02-15T16:27:39.510Z,15.87
2019-02-15T16:30:11.590Z,15.74
2019-02-15T16:32:40.189Z,15.72
2019-02-15T16:35:09.549Z,15.79
2019-02-15T16:37:38.156Z,15.55
2019-02-15T16:40:11.761Z,15.33
2019-02-15T16:42:40.074Z,15.21
2019-02-15T16:45:11.732Z,14.94
2019-02-15T16:47:40.332Z,14.53
2019-02-15T16:50:09.277Z,13.30
2019-02-15T16:52:37.879Z,12.44
2019-02-15T16:55:12.762Z,11.88
2019-02-15T16:57:38.477Z,11.63
2019-02-15T17:00:09.668Z,11.57
2019-02-15T17:02:38.288Z,11.21
2019-02-15T17:05:07.195Z,10.35
2019-02-15T17:07:35.869Z,10.44
2019-02-15T17:10:06.562Z,10.30
2019-02-15T17:12:35.162Z,10.21
2019-02-15T17:15:03.899Z,9.78
2019-02-15T17:17:32.499Z,9.67
2019-02-15T17:20:01.091Z,9.73
2019-02-15T17:22:29.681Z,9.78
2019-02-15T17:24:58.304Z,9.93
2019-02-15T17:27:26.890Z,9.52
2019-02-15T17:29:55.484Z,9.02
2019-02-15T17:32:24.140Z,9.07
2019-02-15T17:34:53.792Z,8.67
2019-02-15T17:37:22.396Z,8.49
2019-02-15T17:39:51.030Z,8.44
2019-02-15T17:42:19.611Z,8.35
2019-02-15T17:44:48.226Z,8.24
2019-02-15T17:47:16.822Z,8.26
2019-02-15T17:49:45.530Z,8.06
2019-02-15T17:52:14.117Z,7.83
2019-02-15T17:54:42.740Z,7.57
2019-02-15T17:57:11.922Z,7.56
2019-02-15T17:59:40.580Z,7.53
2019-02-15T18:02:10.231Z,7.50
2019-02-15T18:04:38.889Z,7.28
2019-02-15T18:07:10.108Z,7.20
2019-02-15T18:09:38.701Z,7.26
2019-02-15T18:12:07.798Z,7.30
2019-02-15T18:14:36.385Z,7.16
2019-02-15T18:17:05.121Z,7.09
2019-02-15T18:19:33.746Z,7.31
2019-02-15T18:22:03.038Z,7.57
2019-02-15T18:24:31.828Z,7.46
2019-02-15T18:27:00.425Z,7.31
2019-02-15T18:29:29.112Z,7.18
2019-02-15T18:31:57.727Z,6.99
2019-02-15T18:34:26.363Z,6.81
2019-02-15T18:36:54.973Z,6.45
2019-02-15T18:39:23.562Z,6.42
2019-02-15T18:41:52.244Z,6.51
2019-02-15T18:44:20.871Z,6.44
2019-02-15T18:46:49.465Z,6.40
2019-02-15T18:49:19.620Z,6.51
2019-02-15T18:51:48.415Z,6.28
2019-02-15T18:54:17.003Z,6.20
2019-02-15T18:56:45.585Z,6.23
2019-02-15T18:59:14.171Z,6.23
2019-02-15T19:01:42.749Z,6.03
2019-02-15T19:04:11.351Z,6.01
2019-02-15T19:06:39.950Z,6.04
2019-02-15T19:09:09.597Z,5.88
2019-02-15T19:11:38.173Z,5.92
2019-02-15T19:14:07.830Z,6.03
2019-02-15T19:16:36.460Z,5.98
2019-02-15T19:19:05.045Z,5.80
2019-02-15T19:21:33.633Z,5.78
2019-02-15T19:24:02.226Z,5.76
2019-02-15T19:26:30.824Z,5.80
2019-02-15T19:28:59.406Z,5.62
2019-02-15T19:31:27.989Z,5.55
2019-02-15T19:33:56.623Z,5.51
2019-02-15T19:36:25.239Z,5.61
2019-02-15T19:38:53.823Z,5.47
2019-02-15T19:41:22.419Z,5.53
2019-02-15T19:43:51.000Z,5.56
2019-02-15T19:46:19.595Z,5.49
2019-02-15T19:48:48.227Z,5.33
2019-02-15T19:51:18.529Z,5.42
2019-02-15T19:53:47.114Z,5.48
2019-02-15T19:56:15.697Z,5.65
2019-02-15T19:58:44.347Z,5.54
2019-02-15T20:01:13.532Z,5.41
2019-02-15T20:03:42.123Z,5.34
2019-02-15T20:06:11.142Z,5.43
2019-02-15T20:08:39.730Z,5.50
2019-02-15T20:11:09.293Z,5.43
2019-02-15T20:13:37.893Z,5.46
2019-02-15T20:16:07.315Z,5.51
2019-02-15T20:18:35.909Z,5.41
2019-02-15T20:21:04.586Z,5.33
2019-02-15T20:23:33.219Z,5.31
2019-02-15T20:26:01.867Z,5.33
2019-02-15T20:28:30.457Z,5.41
2019-02-15T20:31:01.754Z,5.45
2019-02-15T20:33:30.341Z,5.42
2019-02-15T20:35:58.961Z,5.26
2019-02-15T20:38:28.287Z,5.17
2019-02-15T20:40:57.001Z,5.25
2019-02-15T20:43:25.613Z,5.21
2019-02-15T20:45:54.225Z,5.21
2019-02-15T20:48:22.855Z,5.06
2019-02-15T20:50:51.489Z,4.82
2019-02-15T20:53:20.125Z,4.77
2019-02-15T20:55:48.770Z,4.77
2019-02-15T20:58:17.362Z,4.76
2019-02-15T21:00:46.126Z,4.86
2019-02-15T21:03:14.911Z,4.90
2019-02-15T21:05:43.526Z,4.88
2019-02-15T21:08:12.104Z,4.73
2019-02-15T21:10:40.690Z,4.76
2019-02-15T21:13:09.525Z,4.82
2019-02-15T21:15:38.147Z,4.63
2019-02-15T21:18:07.222Z,4.65
2019-02-15T21:20:35.949Z,4.54
2019-02-15T21:23:04.532Z,4.65
2019-02-15T21:25:33.163Z,4.67
2019-02-15T21:28:01.748Z,4.60
2019-02-15T21:30:30.384Z,4.37
2019-02-15T21:32:59.022Z,4.24
2019-02-15T21:35:27.638Z,4.29
2019-02-15T21:37:56.235Z,4.16
2019-02-15T21:40:24.820Z,4.11
2019-02-15T21:42:53.415Z,4.24
2019-02-15T21:45:22.036Z,4.17
2019-02-15T21:47:50.630Z,4.11
2019-02-15T21:50:19.220Z,4.14
2019-02-15T21:52:47.991Z,4.17
2019-02-15T21:55:16.928Z,4.21
2019-02-15T21:57:45.606Z,4.36
2019-02-15T22:00:20.093Z,4.22
2019-02-15T22:02:48.687Z,4.24
2019-02-15T22:05:17.534Z,4.58
2019-02-15T22:07:46.147Z,4.54
2019-02-15T22:10:14.753Z,4.12
2019-02-15T22:12:43.345Z,3.93
2019-02-15T22:15:14.853Z,3.86
2019-02-15T22:17:43.442Z,3.82
2019-02-15T22:20:25.994Z,3.91
2019-02-15T22:22:47.344Z,3.79
2019-02-15T22:25:15.928Z,3.81
2019-02-15T22:27:45.812Z,3.80
2019-02-15T22:30:16.977Z,3.93
2019-02-15T22:32:45.635Z,3.90
2019-02-15T22:35:14.234Z,3.86
2019-02-15T22:37:43.016Z,3.88
2019-02-15T22:40:31.555Z,3.88
2019-02-15T22:43:08.553Z,3.94
2019-02-15T22:45:37.136Z,3.93
2019-02-15T22:48:05.738Z,3.99
2019-02-15T22:50:36.365Z,4.07
2019-02-15T22:53:04.628Z,4.11
2019-02-15T22:55:33.221Z,4.06
2019-02-15T22:58:01.806Z,4.10
2019-02-15T23:00:50.259Z,4.16
2019-02-15T23:03:20.907Z,4.11
2019-02-15T23:05:49.502Z,3.98
2019-02-15T23:08:18.090Z,3.92
2019-02-15T23:10:47.048Z,3.96
2019-02-15T23:13:15.632Z,3.84
2019-02-15T23:15:44.212Z,3.77
2019-02-15T23:18:12.798Z,3.82
2019-02-15T23:20:45.221Z,3.57
2019-02-15T23:23:11.738Z,3.63
2019-02-15T23:25:40.327Z,3.62
2019-02-15T23:28:09.437Z,3.69
2019-02-15T23:30:40.525Z,3.50
2019-02-15T23:33:10.208Z,3.53
2019-02-15T23:35:38.860Z,3.51
2019-02-15T23:38:07.728Z,3.55
2019-02-15T23:40:36.310Z,3.62
2019-02-15T23:43:04.901Z,3.55
2019-02-15T23:45:33.488Z,3.40
2019-02-15T23:48:02.069Z,3.44
2019-02-15T23:50:30.654Z,3.42
2019-02-15T23:52:59.237Z,3.42
2019-02-15T23:55:27.826Z,3.53
2019-02-15T23:57:56.412Z,3.53
